createdAt,value
2023-02-22T00:01:42.808Z,2.86
2023-02-22T00:04:11.028Z,2.76
2023-02-22T00:06:37.387Z,2.87
2023-02-22T00:09:03.892Z,2.87
2023-02-22T00:11:31.480Z,2.82
2023-02-22T00:13:57.874Z,2.80
2023-02-22T00:16:25.717Z,2.88
2023-02-22T00:18:53.275Z,2.83
2023-02-22T00:21:20.452Z,2.82
2023-02-22T00:23:48.314Z,2.77
2023-02-22T00:26:21.819Z,2.73
2023-02-22T00:28:52.045Z,2.65
2023-02-22T00:31:19.941Z,2.56
2023-02-22T00:33:46.490Z,2.48
2023-02-22T00:36:13.765Z,2.46
2023-02-22T00:38:41.100Z,2.43
2023-02-22T00:41:07.829Z,2.41
2023-02-22T00:43:34.683Z,2.37
2023-02-22T00:46:01.452Z,2.35
2023-02-22T00:48:28.341Z,2.33
2023-02-22T00:50:55.112Z,2.33
2023-02-22T00:53:25.774Z,2.26
2023-02-22T00:55:52.714Z,2.28
2023-02-22T00:58:19.632Z,2.23
2023-02-22T01:00:46.451Z,2.25
2023-02-22T01:03:15.212Z,2.23
2023-02-22T01:05:42.527Z,2.16
2023-02-22T01:08:10.446Z,2.12
2023-02-22T01:10:38.630Z,2.08
2023-02-22T01:13:08.484Z,2.06
2023-02-22T01:15:37.822Z,2.11
2023-02-22T01:18:05.180Z,2.08
2023-02-22T01:20:32.326Z,2.02
2023-02-22T01:23:00.358Z,2.15
2023-02-22T01:25:29.094Z,2.10
2023-02-22T01:27:56.912Z,2.02
2023-02-22T01:30:25.996Z,1.98
2023-02-22T01:32:52.890Z,1.98
2023-02-22T01:35:23.402Z,1.95
2023-02-22T01:37:49.837Z,1.86
2023-02-22T01:40:23.291Z,1.79
2023-02-22T01:42:57.605Z,1.83
2023-02-22T01:45:41.817Z,1.86
2023-02-22T01:48:20.485Z,1.85
2023-02-22T01:50:58.137Z,1.82
2023-02-22T01:53:35.211Z,1.70
2023-02-22T01:56:03.105Z,1.62
2023-02-22T01:58:33.508Z,1.68
2023-02-22T02:01:01.062Z,1.77
2023-02-22T02:03:33.635Z,1.81
2023-02-22T02:06:14.622Z,1.78
2023-02-22T02:08:51.384Z,1.76
2023-02-22T02:11:28.141Z,1.87
2023-02-22T02:13:57.104Z,2.03
2023-02-22T02:16:27.666Z,2.18
2023-02-22T02:18:54.497Z,2.24
2023-02-22T02:21:43.737Z,2.27
2023-02-22T02:24:43.612Z,2.38
2023-02-22T02:27:31.089Z,2.28
2023-02-22T02:30:06.267Z,2.13
2023-02-22T02:32:48.918Z,2.16
2023-02-22T02:35:33.549Z,2.20
2023-02-22T02:38:45.231Z,2.06
2023-02-22T02:41:29.203Z,1.93
2023-02-22T02:44:17.483Z,1.84
2023-02-22T02:46:56.183Z,1.75
2023-02-22T02:49:28.982Z,1.67
2023-02-22T02:51:58.360Z,1.68
2023-02-22T02:54:24.906Z,1.70
2023-02-22T02:56:51.230Z,1.65
2023-02-22T02:59:39.300Z,1.59
2023-02-22T03:02:51.267Z,1.60
2023-02-22T03:05:45.566Z,1.68
2023-02-22T03:08:34.965Z,1.76
2023-02-22T03:11:14.938Z,1.98
2023-02-22T03:14:10.970Z,2.20
2023-02-22T03:17:04.476Z,2.30
2023-02-22T03:19:37.054Z,2.26
2023-02-22T03:22:20.570Z,2.18
2023-02-22T03:24:53.689Z,2.22
2023-02-22T03:27:31.828Z,2.32
2023-02-22T03:30:08.602Z,2.44
2023-02-22T03:32:42.556Z,2.37
2023-02-22T03:35:14.632Z,2.27
2023-02-22T03:37:46.738Z,2.20
2023-02-22T03:40:19.246Z,2.19
2023-02-22T03:42:51.532Z,2.12
2023-02-22T03:45:21.131Z,2.21
2023-02-22T03:47:51.670Z,2.15
2023-02-22T03:50:32.040Z,2.10
2023-02-22T03:52:59.062Z,2.11
2023-02-22T03:55:25.465Z,2.08
2023-02-22T03:57:58.635Z,2.08
2023-02-22T04:00:29.432Z,2.11
2023-02-22T04:02:56.165Z,2.15
2023-02-22T04:05:24.664Z,2.07
2023-02-22T04:07:55.987Z,2.08
2023-02-22T04:10:23.532Z,2.16
2023-02-22T04:12:50.828Z,2.20
2023-02-22T04:15:20.516Z,2.19
2023-02-22T04:17:46.853Z,2.14
2023-02-22T04:20:13.780Z,2.10
2023-02-22T04:22:41.079Z,2.12
2023-02-22T04:25:07.820Z,2.08
2023-02-22T04:27:34.330Z,1.99
2023-02-22T04:30:00.661Z,1.82
2023-02-22T04:32:27.489Z,1.84
2023-02-22T04:34:53.884Z,1.81
2023-02-22T04:37:20.388Z,1.71
2023-02-22T04:39:46.706Z,1.63
2023-02-22T04:42:13.053Z,1.67
2023-02-22T04:44:39.383Z,1.51
2023-02-22T04:47:05.670Z,1.42
2023-02-22T04:49:31.977Z,1.36
2023-02-22T04:51:58.232Z,1.31
2023-02-22T04:54:24.861Z,1.32
2023-02-22T04:56:52.081Z,1.39
2023-02-22T04:59:19.682Z,1.42
2023-02-22T05:01:46.257Z,1.52
2023-02-22T05:04:12.616Z,1.60
2023-02-22T05:06:38.941Z,1.62
2023-02-22T05:09:05.843Z,1.69
2023-02-22T05:11:32.169Z,1.68
2023-02-22T05:13:58.442Z,1.69
2023-02-22T05:16:24.898Z,1.71
2023-02-22T05:18:51.286Z,1.73
2023-02-22T05:21:17.939Z,1.72
2023-02-22T05:23:44.528Z,1.53
2023-02-22T05:26:11.609Z,1.42
2023-02-22T05:28:40.528Z,1.41
2023-02-22T05:31:07.268Z,1.28
2023-02-22T05:33:33.654Z,1.16
2023-02-22T05:35:59.957Z,1.08
2023-02-22T05:38:26.201Z,1.02
2023-02-22T05:40:52.547Z,1.07
2023-02-22T05:43:19.013Z,1.07
2023-02-22T05:45:45.504Z,1.00
2023-02-22T05:48:12.852Z,1.01
2023-02-22T05:50:39.170Z,1.06
2023-02-22T05:53:05.564Z,1.09
2023-02-22T05:55:31.986Z,1.15
2023-02-22T05:58:01.722Z,1.15
2023-02-22T06:00:30.402Z,1.11
2023-02-22T06:02:57.680Z,0.96
2023-02-22T06:05:24.161Z,0.87
2023-02-22T06:07:50.925Z,0.80
2023-02-22T06:10:17.269Z,0.69
2023-02-22T06:12:44.241Z,0.57
2023-02-22T06:15:10.536Z,0.62
2023-02-22T06:17:36.903Z,0.72
2023-02-22T06:20:03.782Z,0.83
2023-02-22T06:22:30.077Z,0.98
2023-02-22T06:24:56.391Z,1.05
2023-02-22T06:27:22.660Z,1.13
2023-02-22T06:29:49.056Z,1.29
2023-02-22T06:32:15.411Z,1.28
2023-02-22T06:34:41.793Z,1.36
2023-02-22T06:37:08.263Z,1.45
2023-02-22T06:39:34.565Z,1.56
2023-02-22T06:42:00.858Z,1.69
2023-02-22T06:44:27.145Z,1.75
2023-02-22T06:46:53.446Z,1.71
2023-02-22T06:49:20.725Z,1.77
2023-02-22T06:51:47.719Z,1.82
2023-02-22T06:54:14.430Z,1.89
2023-02-22T06:56:40.877Z,1.93
2023-02-22T06:59:08.346Z,1.98
2023-02-22T07:01:34.774Z,2.01
2023-02-22T07:04:01.349Z,2.10
2023-02-22T07:06:27.698Z,2.19
2023-02-22T07:08:54.667Z,2.37
2023-02-22T07:11:21.055Z,2.41
2023-02-22T07:13:47.321Z,2.35
2023-02-22T07:16:13.679Z,2.32
2023-02-22T07:18:40.025Z,2.39
2023-02-22T07:21:07.537Z,2.46
2023-02-22T07:23:33.859Z,2.45
2023-02-22T07:26:01.378Z,2.51
2023-02-22T07:28:27.908Z,2.51
2023-02-22T07:30:54.241Z,2.64
2023-02-22T07:33:20.555Z,2.74
2023-02-22T07:35:49.119Z,2.84
2023-02-22T07:38:18.277Z,2.81
2023-02-22T07:40:45.187Z,2.86
2023-02-22T07:43:17.834Z,2.98
2023-02-22T07:45:44.422Z,2.90
2023-02-22T07:48:12.468Z,2.89
2023-02-22T07:50:39.985Z,3.04
2023-02-22T07:53:11.631Z,3.03
2023-02-22T07:55:38.130Z,3.05
2023-02-22T07:58:07.761Z,3.17
2023-02-22T08:00:34.028Z,3.24
2023-02-22T08:03:02.563Z,3.31
2023-02-22T08:05:30.789Z,3.43
2023-02-22T08:07:57.459Z,3.56
2023-02-22T08:10:25.376Z,3.67
2023-02-22T08:12:52.729Z,3.78
2023-02-22T08:15:49.580Z,3.94
2023-02-22T08:18:18.217Z,4.04
2023-02-22T08:20:46.985Z,4.07
2023-02-22T08:23:15.203Z,4.06
2023-02-22T08:25:41.656Z,4.12
2023-02-22T08:28:11.260Z,4.11
2023-02-22T08:30:40.385Z,4.41
2023-02-22T08:33:07.176Z,4.64
2023-02-22T08:35:33.886Z,4.94
2023-02-22T08:38:03.440Z,5.21
2023-02-22T08:40:32.565Z,5.41
2023-02-22T08:42:59.438Z,5.65
2023-02-22T08:45:25.783Z,5.82
2023-02-22T08:47:52.199Z,5.98
2023-02-22T08:50:22.048Z,6.21
2023-02-22T08:52:58.538Z,6.41
2023-02-22T08:55:27.300Z,6.41
2023-02-22T08:57:53.590Z,6.82
2023-02-22T09:00:24.628Z,7.03
2023-02-22T09:02:52.336Z,7.19
2023-02-22T09:05:18.903Z,7.21
2023-02-22T09:07:45.626Z,7.17
2023-02-22T09:10:26.149Z,7.23
2023-02-22T09:12:55.364Z,7.44
2023-02-22T09:15:22.947Z,7.32
2023-02-22T09:17:49.593Z,7.42
2023-02-22T09:20:18.181Z,7.73
2023-02-22T09:22:45.606Z,7.93
2023-02-22T09:25:17.146Z,8.17
2023-02-22T09:27:44.196Z,8.35
2023-02-22T09:30:23.515Z,8.51
2023-02-22T09:32:55.451Z,8.61
2023-02-22T09:35:26.860Z,8.62
2023-02-22T09:37:58.386Z,8.89
2023-02-22T09:40:29.561Z,9.04
2023-02-22T09:42:56.425Z,8.75
2023-02-22T09:45:27.660Z,9.07
2023-02-22T09:48:08.069Z,9.24
2023-02-22T09:50:45.515Z,9.37
2023-02-22T09:53:29.374Z,9.34
2023-02-22T09:56:00.469Z,9.49
2023-02-22T09:58:36.651Z,9.21
2023-02-22T10:01:27.963Z,9.46
2023-02-22T10:04:06.632Z,9.66
2023-02-22T10:06:34.437Z,9.90
2023-02-22T10:09:07.710Z,10.11
2023-02-22T10:11:58.325Z,10.35
2023-02-22T10:14:44.024Z,10.31
2023-02-22T10:17:46.086Z,10.46
2023-02-22T10:20:37.122Z,10.22
2023-02-22T10:23:21.234Z,10.41
2023-02-22T10:25:55.706Z,10.55
2023-02-22T10:28:30.919Z,10.61
2023-02-22T10:31:02.154Z,10.70
2023-02-22T10:33:38.201Z,11.05
2023-02-22T10:36:04.748Z,11.13
2023-02-22T10:38:35.030Z,11.05
2023-02-22T10:41:10.617Z,11.08
2023-02-22T10:43:41.422Z,11.35
2023-02-22T10:46:12.245Z,11.33
2023-02-22T10:48:42.008Z,11.52
2023-02-22T10:51:10.000Z,11.96
2023-02-22T10:53:38.406Z,11.92
2023-02-22T10:56:24.724Z,11.85
2023-02-22T10:58:59.759Z,11.88
2023-02-22T11:01:32.154Z,11.56
2023-02-22T11:04:02.029Z,11.56
2023-02-22T11:06:29.333Z,11.63
2023-02-22T11:09:18.897Z,11.58
2023-02-22T11:11:47.209Z,11.56
2023-02-22T11:14:29.054Z,11.63
2023-02-22T11:16:58.510Z,11.30
2023-02-22T11:19:27.583Z,11.22
2023-02-22T11:22:11.504Z,11.29
2023-02-22T11:24:51.877Z,11.24
2023-02-22T11:27:31.458Z,11.25
2023-02-22T11:30:29.207Z,11.47
2023-02-22T11:33:06.014Z,11.75
2023-02-22T11:35:36.920Z,11.90
2023-02-22T11:38:27.400Z,12.26
2023-02-22T11:41:17.192Z,12.54
2023-02-22T11:43:45.938Z,12.75
2023-02-22T11:46:14.203Z,12.98
2023-02-22T11:48:56.909Z,13.03
2023-02-22T11:51:45.051Z,13.01
2023-02-22T11:54:39.469Z,13.16
2023-02-22T11:57:17.750Z,13.16
2023-02-22T12:00:01.677Z,13.22
2023-02-22T12:03:10.356Z,13.15
2023-02-22T12:06:12.041Z,12.92
2023-02-22T12:09:13.868Z,12.89
2023-02-22T12:11:51.609Z,12.79
2023-02-22T12:14:34.392Z,12.71
2023-02-22T12:17:43.619Z,12.61
2023-02-22T12:20:30.840Z,12.66
2023-02-22T12:23:14.112Z,12.64
2023-02-22T12:26:11.886Z,12.75
2023-02-22T12:28:43.587Z,12.88
2023-02-22T12:31:33.975Z,12.95
2023-02-22T12:34:19.800Z,13.00
2023-02-22T12:36:54.381Z,13.24
2023-02-22T12:39:52.096Z,13.24
2023-02-22T12:42:55.646Z,13.57
2023-02-22T12:45:31.751Z,13.69
2023-02-22T12:48:21.476Z,13.78
2023-02-22T12:50:53.274Z,14.03
2023-02-22T12:53:28.336Z,14.33
2023-02-22T12:56:04.516Z,14.58
2023-02-22T12:58:46.303Z,14.66
2023-02-22T13:01:20.023Z,14.60
2023-02-22T13:03:46.775Z,14.59
2023-02-22T13:06:33.937Z,14.35
2023-02-22T13:09:29.642Z,14.26
2023-02-22T13:12:22.196Z,14.43
2023-02-22T13:14:56.098Z,14.40
2023-02-22T13:17:38.707Z,14.31
2023-02-22T13:20:26.313Z,14.39
2023-02-22T13:22:59.266Z,14.33
2023-02-22T13:25:35.312Z,14.37
2023-02-22T13:28:23.209Z,14.41
2023-02-22T13:31:14.267Z,14.41
2023-02-22T13:34:19.010Z,14.37
2023-02-22T13:36:58.076Z,14.19
2023-02-22T13:39:36.347Z,14.13
2023-02-22T13:42:25.165Z,14.06
2023-02-22T13:45:26.940Z,14.19
2023-02-22T13:48:13.217Z,14.14
2023-02-22T13:51:06.502Z,14.17
2023-02-22T13:53:46.923Z,14.07
2023-02-22T13:56:15.107Z,14.03
2023-02-22T13:58:54.125Z,13.80
2023-02-22T14:01:43.368Z,13.74
2023-02-22T14:04:28.176Z,13.74
2023-02-22T14:07:02.909Z,13.71
2023-02-22T14:09:46.816Z,13.76
2023-02-22T14:12:28.383Z,13.74
2023-02-22T14:15:22.015Z,13.79
2023-02-22T14:17:56.932Z,13.76
2023-02-22T14:20:29.892Z,13.86
2023-02-22T14:22:57.782Z,13.67
2023-02-22T14:25:39.012Z,13.64
2023-02-22T14:28:09.282Z,13.87
2023-02-22T14:30:38.426Z,13.81
2023-02-22T14:33:44.287Z,13.83
2023-02-22T14:36:11.288Z,13.59
2023-02-22T14:38:37.889Z,13.61
2023-02-22T14:41:05.830Z,13.65
2023-02-22T14:43:37.178Z,13.60
2023-02-22T14:46:05.900Z,13.58
2023-02-22T14:48:42.890Z,13.68
2023-02-22T14:51:29.117Z,13.75
2023-02-22T14:54:30.374Z,13.92
2023-02-22T14:57:14.480Z,14.03
2023-02-22T15:00:30.976Z,14.17
2023-02-22T15:02:59.792Z,14.18
2023-02-22T15:05:30.355Z,14.20
2023-02-22T15:08:03.207Z,14.21
2023-02-22T15:10:31.801Z,14.23
2023-02-22T15:13:09.911Z,14.05
2023-02-22T15:15:39.040Z,13.98
2023-02-22T15:18:17.334Z,13.82
2023-02-22T15:20:43.795Z,13.55
2023-02-22T15:23:10.800Z,13.39
2023-02-22T15:25:39.101Z,13.23
2023-02-22T15:28:09.468Z,13.08
2023-02-22T15:30:35.988Z,12.95
2023-02-22T15:33:24.470Z,12.91
2023-02-22T15:35:57.623Z,12.73
2023-02-22T15:38:29.543Z,12.63
2023-02-22T15:41:04.180Z,12.52
2023-02-22T15:43:32.060Z,12.40
2023-02-22T15:45:59.851Z,12.19
2023-02-22T15:48:27.813Z,12.04
2023-02-22T15:51:06.952Z,11.87
2023-02-22T15:53:40.045Z,11.79
2023-02-22T15:56:12.280Z,11.67
2023-02-22T15:58:39.107Z,11.54
2023-02-22T16:01:17.043Z,11.40
2023-02-22T16:03:56.186Z,11.23
2023-02-22T16:06:36.200Z,11.13
2023-02-22T16:09:18.229Z,11.04
2023-02-22T16:11:46.374Z,11.10
2023-02-22T16:14:34.302Z,11.11
2023-02-22T16:17:29.490Z,11.06
2023-02-22T16:20:00.758Z,10.95
2023-02-22T16:22:36.060Z,10.73
2023-02-22T16:25:17.722Z,10.54
2023-02-22T16:27:48.095Z,10.36
2023-02-22T16:30:24.049Z,10.23
2023-02-22T16:32:53.241Z,10.09
2023-02-22T16:35:19.673Z,10.01
2023-02-22T16:37:51.575Z,9.91
2023-02-22T16:40:34.227Z,9.77
2023-02-22T16:43:06.832Z,9.78
2023-02-22T16:45:34.185Z,9.66
2023-02-22T16:48:04.642Z,9.58
2023-02-22T16:50:30.973Z,9.46
2023-02-22T16:52:59.993Z,9.35
2023-02-22T16:55:26.751Z,9.27
2023-02-22T16:57:56.847Z,9.19
2023-02-22T17:00:31.138Z,9.08
2023-02-22T17:03:05.341Z,9.00
2023-02-22T17:05:36.169Z,8.92
2023-02-22T17:08:03.683Z,8.88
2023-02-22T17:10:30.325Z,8.90
2023-02-22T17:12:58.045Z,8.94
2023-02-22T17:15:34.654Z,8.92
2023-02-22T17:18:06.312Z,8.77
2023-02-22T17:20:32.735Z,8.66
2023-02-22T17:23:01.271Z,8.59
2023-02-22T17:25:32.637Z,8.54
2023-02-22T17:27:58.906Z,8.57
2023-02-22T17:30:25.577Z,8.56
2023-02-22T17:32:52.697Z,8.67
2023-02-22T17:35:23.067Z,8.62
2023-02-22T17:37:50.343Z,8.57
2023-02-22T17:40:17.021Z,8.66
2023-02-22T17:42:45.958Z,8.75
2023-02-22T17:45:14.011Z,8.77
2023-02-22T17:47:42.396Z,8.89
2023-02-22T17:50:11.317Z,8.74
2023-02-22T17:52:38.201Z,8.61
2023-02-22T17:55:05.710Z,8.52
2023-02-22T17:57:32.160Z,8.51
2023-02-22T18:00:00.207Z,8.52
2023-02-22T18:02:26.966Z,8.61
2023-02-22T18:04:53.332Z,8.57
2023-02-22T18:07:19.828Z,8.48
2023-02-22T18:09:46.922Z,8.51
2023-02-22T18:12:13.314Z,8.52
2023-02-22T18:14:39.601Z,8.52
2023-02-22T18:17:06.040Z,8.55
2023-02-22T18:19:32.355Z,8.44
2023-02-22T18:22:00.154Z,8.50
2023-02-22T18:24:26.970Z,8.39
2023-02-22T18:26:53.396Z,8.36
2023-02-22T18:29:19.721Z,8.31
2023-02-22T18:31:46.051Z,8.35
2023-02-22T18:34:13.039Z,8.37
2023-02-22T18:36:39.712Z,8.25
2023-02-22T18:39:11.504Z,8.18
2023-02-22T18:41:38.576Z,8.11
2023-02-22T18:44:10.825Z,8.07
2023-02-22T18:46:37.148Z,8.04
2023-02-22T18:49:04.254Z,8.01
2023-02-22T18:51:30.762Z,7.98
2023-02-22T18:54:00.280Z,7.94
2023-02-22T18:56:33.768Z,7.95
2023-02-22T18:59:02.788Z,8.04
2023-02-22T19:01:31.362Z,8.01
2023-02-22T19:03:57.813Z,8.09
2023-02-22T19:06:24.271Z,8.02
2023-02-22T19:08:50.850Z,7.97
2023-02-22T19:11:19.567Z,7.97
2023-02-22T19:13:47.518Z,7.85
2023-02-22T19:16:15.227Z,7.79
2023-02-22T19:18:43.910Z,7.73
2023-02-22T19:21:11.041Z,7.72
2023-02-22T19:23:45.199Z,7.82
2023-02-22T19:26:21.079Z,7.82
2023-02-22T19:28:48.690Z,7.84
2023-02-22T19:31:23.212Z,7.71
2023-02-22T19:33:52.205Z,7.75
2023-02-22T19:36:20.487Z,7.69
2023-02-22T19:38:46.789Z,7.56
2023-02-22T19:41:18.080Z,7.45
2023-02-22T19:43:46.083Z,7.36
2023-02-22T19:46:12.982Z,7.30
2023-02-22T19:48:39.766Z,7.25
2023-02-22T19:51:08.250Z,7.21
2023-02-22T19:53:35.252Z,7.21
2023-02-22T19:56:06.469Z,7.17
2023-02-22T19:58:36.525Z,7.18
2023-02-22T20:01:13.227Z,7.13
2023-02-22T20:03:41.614Z,7.09
2023-02-22T20:06:11.897Z,7.07
2023-02-22T20:08:41.890Z,7.01
2023-02-22T20:11:11.623Z,7.25
2023-02-22T20:13:38.652Z,7.32
2023-02-22T20:16:05.374Z,7.16
2023-02-22T20:18:31.770Z,7.12
2023-02-22T20:20:58.068Z,7.09
2023-02-22T20:23:24.402Z,7.11
2023-02-22T20:25:52.508Z,7.10
2023-02-22T20:28:18.814Z,7.10
2023-02-22T20:30:45.212Z,7.12
2023-02-22T20:33:13.464Z,7.11
2023-02-22T20:35:40.148Z,7.12
2023-02-22T20:38:06.573Z,7.15
2023-02-22T20:40:32.925Z,7.15
2023-02-22T20:42:59.215Z,7.18
2023-02-22T20:45:25.637Z,7.20
2023-02-22T20:47:52.030Z,7.21
2023-02-22T20:50:18.451Z,7.23
2023-02-22T20:52:45.191Z,7.24
2023-02-22T20:55:11.565Z,7.24
2023-02-22T20:57:38.369Z,7.26
2023-02-22T21:00:05.397Z,7.29
2023-02-22T21:02:31.694Z,7.44
2023-02-22T21:04:58.022Z,7.54
2023-02-22T21:07:24.478Z,7.61
2023-02-22T21:09:50.814Z,7.66
2023-02-22T21:12:17.169Z,7.66
2023-02-22T21:14:46.192Z,7.51
2023-02-22T21:17:12.527Z,7.35
2023-02-22T21:19:38.836Z,7.29
2023-02-22T21:22:08.045Z,7.28
2023-02-22T21:24:36.655Z,7.28
2023-02-22T21:27:03.488Z,7.38
2023-02-22T21:29:29.859Z,7.32
2023-02-22T21:31:56.499Z,7.31
2023-02-22T21:34:23.444Z,7.33
2023-02-22T21:36:50.480Z,7.42
2023-02-22T21:39:19.815Z,7.45
2023-02-22T21:41:51.143Z,7.53
2023-02-22T21:44:18.327Z,7.61
2023-02-22T21:46:46.702Z,7.75
2023-02-22T21:49:13.064Z,7.73
2023-02-22T21:51:39.412Z,7.67
2023-02-22T21:54:08.356Z,7.64
2023-02-22T21:56:37.602Z,7.65
2023-02-22T21:59:07.212Z,7.64
2023-02-22T22:01:36.533Z,7.63
2023-02-22T22:04:04.324Z,7.63
2023-02-22T22:06:32.196Z,7.77
2023-02-22T22:09:00.056Z,7.75
2023-02-22T22:11:26.737Z,7.78
2023-02-22T22:13:57.342Z,7.80
2023-02-22T22:16:25.931Z,7.76
2023-02-22T22:18:53.085Z,7.77
2023-02-22T22:21:22.622Z,7.85
2023-02-22T22:23:50.384Z,7.85
2023-02-22T22:26:19.863Z,7.85
2023-02-22T22:28:49.639Z,7.82
2023-02-22T22:31:19.523Z,7.75
2023-02-22T22:33:46.349Z,7.77
2023-02-22T22:36:15.738Z,7.77
2023-02-22T22:38:43.102Z,7.77
2023-02-22T22:41:13.133Z,7.90
2023-02-22T22:43:41.375Z,7.86
2023-02-22T22:46:08.551Z,7.84
2023-02-22T22:48:38.910Z,7.83
2023-02-22T22:51:09.699Z,7.96
2023-02-22T22:53:38.587Z,7.97
2023-02-22T22:56:19.142Z,8.01
2023-02-22T22:58:51.087Z,7.97
2023-02-22T23:01:20.208Z,7.89
2023-02-22T23:03:54.582Z,7.88
2023-02-22T23:06:26.581Z,7.92
2023-02-22T23:09:11.894Z,7.89
2023-02-22T23:11:44.329Z,7.86
2023-02-22T23:14:18.869Z,7.93
2023-02-22T23:16:50.068Z,7.85
2023-02-22T23:19:16.726Z,7.82
2023-02-22T23:21:46.277Z,7.80
2023-02-22T23:24:17.504Z,7.75
2023-02-22T23:26:51.228Z,7.73
2023-02-22T23:29:19.385Z,7.69
2023-02-22T23:31:48.213Z,7.65
2023-02-22T23:34:20.876Z,7.78
2023-02-22T23:36:47.526Z,7.75
2023-02-22T23:39:21.758Z,7.79
2023-02-22T23:41:53.366Z,7.75
2023-02-22T23:44:21.189Z,7.75
2023-02-22T23:46:48.896Z,7.81
2023-02-22T23:49:20.300Z,7.77
2023-02-22T23:51:47.040Z,7.75
2023-02-22T23:54:16.111Z,7.77
2023-02-22T23:56:53.513Z,7.74
2023-02-22T23:59:19.941Z,7.77
